• Join FlightAware (Why Join?)
  • Login
  • US Flag GB Flag 
19:17 EDT


 

Airport Tracker/Info


-or-


 

Live Flight TrackerFlight Track Log ✈ EJA677P ✈ 07-Apr-2013 ✈ KTEB - KDAB

Flight Track Log - Related Links

Times and Time Zones

All times are in EDT time to prevent confusion due to time zone crossing. See the EJA677P flight status page for this flight to view local times or setup timezone preferences in your user account.

Time Position Orientation Groundspeed Altitude Reporting Facility
EDT Latitude Longitude Course Direction KTS MPH feet Rate Location/Type
08:48 40.8333 -74.1000 157° South 179 206 1,600  Level New York TRACON
08:49 40.8000 -74.1667 237° Southwest 201 231 4,300 2,400 Climbing New York TRACON
08:50 40.7500 -74.1833 194° South 225 259 6,200 2,460 Climbing New York TRACON
08:53 40.6019 -74.2533 200° South 261 300 12,400 2,700 Climbing New York Center
08:54 40.4216 -74.2083 157° South  Level FlightAware Approximate
08:54 40.5436 -74.3214 222° Southwest 267 307 14,900  Level New York Center
08:55 40.4661 -74.2656 151° Southeast 244 281 16,900 1,020 Climbing New York Center
08:56 40.4125 -74.1811 130° Southeast 258 297 17,000 60 Climbing New York Center
08:57 40.3442 -74.0906 135° Southeast 306 352 17,100 900 Climbing New York Center
08:58 40.2725 -74.1142 194° South 260 299 18,800 2,220 Climbing New York Center
09:00 40.0558 -74.2497 206° Southwest 326 375 25,100 2,520 Climbing Washington Center
09:01 39.9861 -74.3322 222° Southwest 343 395 27,600 2,460 Climbing Washington Center
09:02 39.9161 -74.4094 220° Southwest 343 395 30,100 2,100 Climbing Washington Center
09:03 39.8458 -74.4889 221° Southwest 343 395 31,900 1,200 Climbing Washington Center
09:04 39.7717 -74.5792 223° Southwest 352 405 32,500 1,020 Climbing Washington Center
09:05 39.6953 -74.6692 222° Southwest 367 422 34,000 1,500 Climbing Washington Center
09:06 39.6317 -74.7778 233° Southwest 372 428 35,500 1,500 Climbing Washington Center
09:07 39.5739 -74.8833 235° Southwest 377 434 37,000 1,380 Climbing Washington Center
09:08 39.5056 -74.9433 214° Southwest 372 428 38,300 1,200 Climbing Washington Center
09:09 39.4119 -75.0114 209° Southwest 358 412 39,500 840 Climbing Washington Center
09:10 39.3206 -75.0711 207° Southwest 358 412 40,000 240 Climbing Washington Center
09:11 39.2314 -75.1308 207° Southwest 369 425 40,000  Level Washington Center
09:12 39.1419 -75.1903 207° Southwest 369 425 40,000  Level Washington Center
09:13 39.0544 -75.2494 208° Southwest 364 419 40,000  Level Washington Center
09:14 38.9672 -75.3086 208° Southwest 364 419 40,000  Level Washington Center
09:15 38.8797 -75.3650 207° Southwest 359 413 40,000  Level Washington Center
09:16 38.7922 -75.4211 207° Southwest 359 413 40,000  Level Washington Center
09:17 38.7069 -75.4772 207° Southwest 359 413 40,000  Level Washington Center
09:18 38.6194 -75.5358 208° Southwest 359 413 40,000  Level Washington Center
09:19 38.5339 -75.5917 207° Southwest 354 407 40,000  Level Washington Center
09:20 38.4464 -75.6553 210° Southwest 354 407 40,000  Level Washington Center
09:21 38.3567 -75.7056 204° Southwest 354 407 40,000  Level Washington Center
09:22 38.2586 -75.7689 207° Southwest 359 413 40,000  Level Washington Center
09:23 38.1728 -75.8242 207° Southwest 359 413 40,000  Level Washington Center
09:24 38.0853 -75.8794 206° Southwest 359 413 40,000  Level Washington Center
09:25 37.9975 -75.9369 207° Southwest 359 413 40,000  Level Washington Center
09:26 37.9056 -75.9919 205° Southwest 359 413 40,000  Level Washington Center
09:27 37.8197 -76.0492 208° Southwest 359 413 40,000  Level Washington Center
09:28 37.7319 -76.1117 209° Southwest 359 413 40,000  Level Washington Center
09:29 37.6422 -76.1608 203° Southwest 359 413 40,000  Level Washington Center
09:30 37.5522 -76.2206 208° Southwest 359 413 40,000  Level Washington Center
09:31 37.4622 -76.2747 206° Southwest 359 413 40,000  Level Washington Center
09:32 37.3742 -76.3314 207° Southwest 359 413 40,000  Level Washington Center
09:33 37.2842 -76.3881 207° Southwest 359 413 40,000  Level Washington Center
09:34 37.1942 -76.4444 207° Southwest 359 413 40,000  Level Washington Center
09:35 37.1061 -76.5008 207° Southwest 359 413 40,000  Level Washington Center
09:36 37.0181 -76.5544 206° Southwest 359 413 40,000  Level Washington Center
09:37 36.9278 -76.6131 207° Southwest 359 413 40,000  Level Washington Center
09:38 36.8397 -76.6689 207° Southwest 359 413 40,000  Level Washington Center
09:39 36.7494 -76.7222 205° Southwest 359 413 40,000  Level Washington Center
09:40 36.6592 -76.7803 207° Southwest 359 413 40,000  Level Washington Center
09:41 36.5731 -76.8308 205° Southwest 359 413 40,000  Level Washington Center
09:42 36.4828 -76.8861 206° Southwest 364 419 40,000  Level Washington Center
09:43 36.3925 -76.9414 206° Southwest 359 413 40,000  Level Washington Center
09:44 36.3042 -76.9967 207° Southwest 359 413 40,000  Level Washington Center
09:45 36.2161 -77.0517 207° Southwest 359 413 40,000  Level Washington Center
09:46 36.1278 -77.1042 206° Southwest 359 413 40,000  Level Washington Center
09:47 36.0436 -77.1564 207° Southwest 352 405 40,000  Level Washington Center
09:48 35.9675 -77.2242 216° Southwest 346 398 40,000  Level Washington Center
09:49 35.8914 -77.2997 219° Southwest 346 398 40,000  Level Washington Center
09:50 35.8153 -77.3722 218° Southwest 352 405 40,000  Level Washington Center
09:51 35.7369 -77.4447 217° Southwest 352 405 40,000  Level Washington Center
09:52 35.6586 -77.5194 218° Southwest 352 405 40,000  Level Washington Center
09:53 35.5822 -77.5917 218° Southwest 352 405 40,000  Level Washington Center
09:54 35.5039 -77.6664 218° Southwest 352 405 40,000  Level Washington Center
09:55 35.4294 -77.7358 217° Southwest 352 405 40,000  Level Washington Center
09:56 35.3489 -77.8100 217° Southwest 352 405 40,000  Level Washington Center
09:57 35.2725 -77.8817 217° Southwest 352 405 40,000  Level Washington Center
09:58 35.1958 -77.9533 217° Southwest 352 405 40,000  Level Washington Center
09:59 35.1194 -78.0247 217° Southwest 347 399 40,000  Level Washington Center
10:00 35.0406 -78.0983 217° Southwest 347 399 40,000  Level Washington Center
10:01 34.9619 -78.1719 218° Southwest 352 405 40,000  Level Washington Center
10:04 34.7122 -78.4122 218° Southwest 363 418 40,000  Level Jacksonville Center
10:05 34.6372 -78.4717 213° Southwest 363 418 40,000  Level Jacksonville Center
10:06 34.5583 -78.5439 217° Southwest 363 418 40,000  Level Jacksonville Center
10:07 34.4817 -78.6208 220° Southwest 363 418 40,000  Level Jacksonville Center
10:08 34.4008 -78.6953 217° Southwest 363 418 40,000  Level Jacksonville Center
10:09 34.3219 -78.7694 218° Southwest 363 418 40,000  Level Jacksonville Center
10:10 34.2428 -78.8408 217° Southwest 363 418 40,000  Level Jacksonville Center
10:11 34.1617 -78.9100 215° Southwest 363 418 40,000  Level Jacksonville Center
10:12 34.0825 -78.9839 218° Southwest 363 418 40,000  Level Jacksonville Center
10:13 34.0014 -79.0550 216° Southwest 363 418 40,000  Level Jacksonville Center
10:14 33.9222 -79.1286 218° Southwest 363 418 40,000  Level Jacksonville Center
10:15 33.8386 -79.1997 215° Southwest 369 425 40,000  Level Jacksonville Center
10:16 33.7594 -79.2731 218° Southwest 369 425 40,000  Level Jacksonville Center
10:17 33.6761 -79.3461 216° Southwest 360 414 40,000  Level Jacksonville Center
10:18 33.5944 -79.4192 217° Southwest 360 414 40,000  Level Jacksonville Center
10:19 33.5131 -79.4922 217° Southwest 365 420 40,000  Level Jacksonville Center
10:20 33.4317 -79.5650 217° Southwest 365 420 40,000  Level Jacksonville Center
10:21 33.3500 -79.6353 216° Southwest 371 427 40,000  Level Jacksonville Center
10:22 33.2683 -79.7103 218° Southwest 371 427 40,000  Level Jacksonville Center
10:23 33.1842 -79.7728 212° Southwest 371 427 40,000  Level Jacksonville Center
10:24 33.0894 -79.8233 204° Southwest 371 427 40,000  Level Jacksonville Center
10:25 32.9947 -79.8758 205° Southwest 376 433 40,000  Level Jacksonville Center
10:26 32.9000 -79.9311 206° Southwest 376 433 40,000  Level Jacksonville Center
10:27 32.8072 -79.9811 204° Southwest 376 433 40,000  Level Jacksonville Center
10:28 32.7103 -80.0336 204° Southwest 376 433 40,000  Level Jacksonville Center
10:29 32.6178 -80.0858 205° Southwest 376 433 40,000  Level Jacksonville Center
10:30 32.5228 -80.1381 205° Southwest 376 433 40,000  Level Jacksonville Center
10:31 32.4278 -80.1903 205° Southwest 381 438 40,000  Level Jacksonville Center
10:32 32.3350 -80.2444 206° Southwest 381 438 40,000  Level Jacksonville Center
10:33 32.2403 -80.2964 205° Southwest 381 438 40,000 -480 Level Jacksonville Center
10:34 32.1472 -80.3456 204° Southwest 381 438 39,100 -960 Descending Jacksonville Center
10:35 32.0500 -80.3975 204° Southwest 380 437 38,100 -600 Descending Jacksonville Center
10:36 31.9697 -80.4436 206° Southwest 375 432 38,000 -600 Descending Jacksonville Center
10:37 31.8622 -80.5003 204° Southwest 383 441 37,000 -960 Descending Jacksonville Center
10:38 31.7631 -80.5567 206° Southwest 400 460 36,100 -540 Descending Jacksonville Center
10:39 31.6761 -80.6028 204° Southwest 395 455 36,000 -60 Descending Jacksonville Center
10:40 31.5706 -80.6589 204° Southwest 390 449 36,000  Level Jacksonville Center
10:41 31.4756 -80.7075 204° Southwest 380 437 36,000 -480 Level Jacksonville Center
10:42 31.3825 -80.7608 206° Southwest 380 437 35,100 -1,020 Descending Jacksonville Center
10:43 31.2853 -80.8142 205° Southwest 385 443 34,000 -1,080 Descending Jacksonville Center
10:44 31.1836 -80.8672 204° Southwest 396 456 33,000 -1,020 Descending Jacksonville Center
10:45 31.0822 -80.9206 204° Southwest 396 456 32,000 -1,080 Descending Jacksonville Center
10:46 30.9808 -80.9736 204° Southwest 396 456 30,900 -1,080 Descending Jacksonville Center
10:47 30.8856 -81.0239 204° Southwest 396 456 29,900 -1,080 Descending Jacksonville Center
10:48 30.7881 -81.0764 205° Southwest 396 456 28,800 -1,200 Descending Jacksonville Center
10:49 30.6864 -81.1267 203° Southwest 396 456 27,600 -1,320 Descending Jacksonville Center
10:50 30.5783 -81.1528 192° South 396 456 26,200 -1,380 Descending Jacksonville Center
10:51 30.4614 -81.1503 179° South 403 464 24,900 -1,140 Descending Jacksonville Center
10:52 30.3464 -81.1450 178° South 409 471 24,000 -480 Descending Jacksonville Center
10:53 30.2378 -81.1422 179° South 403 464 24,000 -840 Level Jacksonville Center
10:54 30.1356 -81.1392 179° South 395 455 22,400 -1,800 Descending Jacksonville Center
10:55 30.0311 -81.1436 182° South 381 438 20,500 -1,200 Descending Jacksonville Center
10:56 29.9292 -81.1622 189° South 381 438 20,000 -420 Descending Jacksonville Center
10:57 29.8269 -81.1808 189° South 376 433 19,700 -960 Descending Jacksonville Center
10:58 29.7206 -81.1778 179° South 376 433 18,200 -1,500 Descending Jacksonville Center
10:59 29.6222 -81.1558 169° South 376 433 16,700 -1,800 Descending Jacksonville Center
11:00 29.5281 -81.1478 176° South 365 420 14,600 -2,220 Descending Jacksonville Center
11:01 29.4339 -81.1303 171° South 349 402 12,300 -2,460 Descending Jacksonville Center
11:02 29.3503 -81.1200 174° South 332 382 9,700 -3,000 Descending Jacksonville Center
11:03 29.2733 -81.1381 192° South 289 333 6,300 -2,880 Descending Jacksonville Center
11:04 29.2133 -81.1892 217° Southwest 275 316 4,000 -2,160 Descending Jacksonville Center
11:05 29.1872 -81.2656 249° West 224 258 1,900 3,960 Descending Jacksonville Center
11:06 29.1247 -81.2786 190° South 242 278 12,000 5,220 Climbing Jacksonville Center
11:07 29.0731 -81.3197 215° Southwest 242 278 12,000  Level Jacksonville Center
11:08 29.0214 -81.3633 216° Southwest 242 278 12,000 -4,740 Level Jacksonville Center
11:10 29.1381 -81.1619 56° Northeast 162 186 1,500 -5,160 Descending Jacksonville Center
11:11 29.1519 -81.1261 66° East 135 155 1,000 -600 Descending Jacksonville Center
11:12 29.1661 -81.0900 66° East 107 123 400 -600 Descending Jacksonville Center